Time;durP1;ratioP1;P1;durP2;ratioP2;P2;SDS_P1;SDS_P2;PMS_P1;PMS_P2;Temp;Humidity;BMP_temperature;BMP_pressure;BME280_temperature;BME280_humidity;BME280_pressure;Samples;Min_cycle;Max_cycle;Signal;HPM_P1;HPM_P2
2023/01/11 00:01:31;;;;;;;7.55;5.78;;;;;;;8.90;100.00;100600.88;5092375;28;20066;-67
2023/01/11 00:03:57;;;;;;;7.05;5.68;;;;;;;8.88;100.00;100606.25;5092189;28;20020;-67
2023/01/11 00:06:22;;;;;;;7.18;6.18;;;;;;;8.88;100.00;100600.97;5075395;28;20020;-66
2023/01/11 00:08:48;;;;;;;8.88;6.03;;;;;;;8.88;100.00;100593.00;5093970;28;20082;-67
2023/01/11 00:11:17;;;;;;;7.75;5.50;;;;;;;8.86;100.00;100594.91;5092350;28;20118;-67
2023/01/11 00:13:44;;;;;;;7.32;5.35;;;;;;;8.97;100.00;100594.25;5093086;28;20016;-67
2023/01/11 00:16:10;;;;;;;6.10;5.28;;;;;;;8.92;100.00;100585.75;5093200;28;20032;-66
2023/01/11 00:18:36;;;;;;;9.00;5.57;;;;;;;8.95;100.00;100585.56;5071649;28;20479;-67
2023/01/11 00:21:05;;;;;;;8.15;5.50;;;;;;;8.96;100.00;100584.59;5068271;28;20028;-67
2023/01/11 00:23:35;;;;;;;7.03;5.28;;;;;;;8.93;100.00;100574.16;5087539;28;20031;-67
2023/01/11 00:26:05;;;;;;;6.25;4.82;;;;;;;8.99;100.00;100576.44;5113373;28;20073;-67
2023/01/11 00:28:31;;;;;;;5.70;5.20;;;;;;;8.99;100.00;100582.59;5089756;28;20050;-66
2023/01/11 00:30:57;;;;;;;6.88;5.10;;;;;;;9.02;100.00;100571.81;5113381;28;20019;-66
2023/01/11 00:33:25;;;;;;;4.82;4.43;;;;;;;9.06;100.00;100576.00;5060966;28;20380;-67
2023/01/11 00:35:51;;;;;;;5.25;4.75;;;;;;;9.08;100.00;100568.78;5113085;28;20027;-66
2023/01/11 00:47:55;;;;;;;5.05;4.55;;;;;;;9.09;100.00;100572.31;5094551;28;20065;-67
2023/01/11 00:49:16;;;;;;;5.72;4.88;;;;;;;9.14;100.00;100556.94;5084152;28;20046;-67
2023/01/11 00:51:42;;;;;;;6.85;5.15;;;;;;;9.21;100.00;100565.38;5082653;28;20383;-67
2023/01/11 00:54:07;;;;;;;5.03;4.63;;;;;;;9.17;100.00;100572.66;5102710;28;20035;-66
2023/01/11 00:56:34;;;;;;;7.65;5.45;;;;;;;9.22;100.00;100562.63;5082326;28;20028;-67
2023/01/11 00:59:00;;;;;;;5.65;4.88;;;;;;;9.17;100.00;100559.41;5074079;28;20325;-66
2023/01/11 01:01:28;;;;;;;6.32;5.25;;;;;;;9.17;100.00;100558.56;5093480;28;20016;-67
2023/01/11 01:03:53;;;;;;;6.95;5.13;;;;;;;9.16;100.00;100549.75;5076395;28;20028;-66
2023/01/11 01:06:21;;;;;;;5.60;4.82;;;;;;;9.15;100.00;100555.13;5078808;28;20043;-67
2023/01/11 01:08:47;;;;;;;8.80;5.18;;;;;;;9.14;100.00;100556.94;5093219;28;20047;-67
2023/01/11 01:11:15;;;;;;;7.43;5.90;;;;;;;9.15;100.00;100553.34;5094846;28;20023;-67
2023/01/11 01:16:27;;;;;;;6.95;5.30;;;;;;;9.17;100.00;100559.41;5095304;28;20099;-67
2023/01/11 01:18:55;;;;;;;6.45;5.85;;;;;;;9.20;100.00;100558.34;5108442;27;20096;-66
2023/01/11 01:21:24;;;;;;;7.90;5.95;;;;;;;9.16;100.00;100552.41;5105693;28;20028;-67
2023/01/11 01:23:51;;;;;;;6.43;4.82;;;;;;;9.23;100.00;100569.63;5102344;28;20375;-67
2023/01/11 01:26:17;;;;;;;8.30;5.97;;;;;;;9.20;100.00;100559.22;5109976;28;20031;-67
2023/01/11 01:28:42;;;;;;;6.70;6.03;;;;;;;9.24;100.00;100558.09;5080685;28;20509;-68
2023/01/11 01:31:07;;;;;;;7.35;5.30;;;;;;;9.23;100.00;100564.31;5074324;28;20040;-67
2023/01/11 01:33:33;;;;;;;6.47;5.68;;;;;;;9.24;100.00;100562.53;5099535;28;20065;-66
2023/01/11 01:36:00;;;;;;;5.53;5.03;;;;;;;9.28;100.00;100561.41;5111987;28;20035;-67
2023/01/11 01:38:26;;;;;;;6.65;6.05;;;;;;;9.22;100.00;100551.16;5092970;28;20133;-66
2023/01/11 01:40:52;;;;;;;6.72;6.10;;;;;;;9.36;100.00;100555.63;5112727;28;20023;-66
2023/01/11 01:43:18;;;;;;;7.07;5.85;;;;;;;9.32;100.00;100561.13;5112016;28;20152;-66
2023/01/11 01:45:48;;;;;;;7.80;6.22;;;;;;;9.35;100.00;100559.19;5112055;28;20047;-66
2023/01/11 01:48:21;;;;;;;11.90;6.35;;;;;;;9.36;100.00;100566.25;5087320;28;20555;-67
2023/01/11 01:50:54;;;;;;;6.55;5.95;;;;;;;9.37;100.00;100562.63;5085872;28;20522;-67
2023/01/11 01:53:27;;;;;;;8.57;6.07;;;;;;;9.38;100.00;100559.84;5091221;28;20023;-66
2023/01/11 01:55:57;;;;;;;7.10;5.85;;;;;;;9.39;100.00;100548.31;5102123;28;20102;-67
2023/01/11 01:58:37;;;;;;;6.43;5.55;;;;;;;9.41;100.00;100558.81;5111720;28;20043;-67
2023/01/11 02:03:47;;;;;;;6.78;5.82;;;;;;;9.44;100.00;100555.97;5096334;28;20501;-66
2023/01/11 02:06:13;;;;;;;7.45;5.97;;;;;;;9.51;100.00;100552.00;5111085;28;20023;-66
2023/01/11 02:08:43;;;;;;;6.70;5.78;;;;;;;9.51;100.00;100554.66;5091278;28;20032;-66
2023/01/11 02:11:37;;;;;;;8.00;6.40;;;;;;;9.51;100.00;100559.97;5093662;28;20541;-67
2023/01/11 02:14:11;;;;;;;6.30;5.70;;;;;;;9.54;100.00;100554.44;5111688;28;20479;-66
2023/01/11 02:16:37;;;;;;;6.38;5.75;;;;;;;9.59;100.00;100546.19;5091348;28;20084;-67
2023/01/11 02:19:05;;;;;;;5.93;5.25;;;;;;;9.58;100.00;100547.13;5097183;28;20035;-67
2023/01/11 02:22:03;;;;;;;6.38;5.07;;;;;;;9.57;100.00;100550.75;5091355;28;20040;-66
2023/01/11 02:24:47;;;;;;;7.15;5.60;;;;;;;9.62;100.00;100553.94;5083947;28;20059;-67
2023/01/11 02:27:42;;;;;;;5.85;5.35;;;;;;;9.68;100.00;100551.78;5098225;28;20031;-67
2023/01/11 02:30:25;;;;;;;5.82;5.30;;;;;;;9.65;100.00;100551.13;5109938;28;20028;-67
2023/01/11 02:33:03;;;;;;;5.55;5.03;;;;;;;9.65;100.00;100551.97;5101861;28;20535;-66
2023/01/11 02:35:56;;;;;;;6.10;5.57;;;;;;;9.65;100.00;100538.69;5100844;28;20505;-67
2023/01/11 02:38:51;;;;;;;6.30;5.78;;;;;;;9.65;100.00;100544.00;5091245;28;20360;-66
2023/01/11 02:47:50;;;;;;;6.63;5.15;;;;;;;9.73;100.00;100535.53;5095148;28;20097;-67
2023/01/11 02:50:19;;;;;;;5.10;4.55;;;;;;;9.77;100.00;100534.41;5103935;28;20047;-67
2023/01/11 02:53:02;;;;;;;5.35;4.85;;;;;;;9.82;100.00;100526.97;5111149;28;20442;-67
2023/01/11 02:55:36;;;;;;;5.28;4.75;;;;;;;9.78;100.00;100528.97;5102718;28;20028;-67
2023/01/11 02:58:07;;;;;;;4.95;4.55;;;;;;;9.81;100.00;100525.25;5095332;28;20027;-66
2023/01/11 03:00:36;;;;;;;5.60;5.00;;;;;;;9.86;100.00;100530.28;5093242;28;20027;-66
2023/01/11 03:03:22;;;;;;;5.43;4.93;;;;;;;9.84;100.00;100530.38;5094472;28;20073;-67
2023/01/11 03:06:10;;;;;;;5.57;4.70;;;;;;;9.85;100.00;100529.41;5094717;28;20037;-67
2023/01/11 03:08:50;;;;;;;5.28;4.85;;;;;;;9.87;100.00;100518.69;5093557;28;20039;-67
2023/01/11 03:12:50;;;;;;;;;;;;;;;9.87;100.00;100514.22;5095131;28;20024;-67
2023/01/11 03:14:09;;;;;;;5.38;4.90;;;;;;;9.85;100.00;100512.63;5094901;28;19912;-66
2023/01/11 03:16:59;;;;;;;5.00;4.50;;;;;;;9.92;100.00;100520.09;5094701;28;20016;-67
2023/01/11 03:19:44;;;;;;;4.72;4.30;;;;;;;9.91;100.00;100517.53;5103132;28;20165;-66
2023/01/11 03:22:09;;;;;;;6.57;3.97;;;;;;;9.87;100.00;100524.88;5089603;28;20030;-66
2023/01/11 03:24:51;;;;;;;5.75;4.85;;;;;;;9.91;100.00;100526.38;5114120;28;20024;-67
2023/01/11 03:27:29;;;;;;;4.97;4.13;;;;;;;9.95;100.00;100519.91;5107535;28;20462;-67
2023/01/11 03:30:03;;;;;;;6.85;4.88;;;;;;;9.94;100.00;100522.66;5113592;28;20034;-67
2023/01/11 03:32:36;;;;;;;4.40;4.10;;;;;;;9.96;100.00;100513.63;5093913;28;20023;-66
2023/01/11 03:35:04;;;;;;;4.78;4.30;;;;;;;9.96;100.00;100516.28;5092483;28;20016;-66
2023/01/11 03:37:35;;;;;;;4.88;4.28;;;;;;;9.96;100.00;100523.41;5094812;28;20035;-67
2023/01/11 03:40:27;;;;;;;4.20;4.00;;;;;;;9.94;100.00;100523.53;5093299;28;20112;-67
2023/01/11 03:43:10;;;;;;;4.45;3.80;;;;;;;10.06;100.00;100518.31;5093897;28;20368;-67
2023/01/11 03:45:49;;;;;;;3.88;3.58;;;;;;;9.99;100.00;100523.22;5094510;28;20119;-67
2023/01/11 03:48:19;;;;;;;4.47;4.10;;;;;;;9.97;100.00;100511.81;5089432;28;20024;-67
2023/01/11 03:50:48;;;;;;;4.03;3.72;;;;;;;10.00;100.00;100519.63;5099816;28;20383;-67
2023/01/11 03:53:17;;;;;;;4.45;3.80;;;;;;;9.98;100.00;100517.03;5113903;28;20028;-67
2023/01/11 03:55:45;;;;;;;4.47;4.13;;;;;;;10.06;100.00;100513.00;5107075;28;20055;-67
2023/01/11 03:58:11;;;;;;;4.35;4.00;;;;;;;9.97;100.00;100510.03;5112681;28;20036;-67
2023/01/11 04:00:37;;;;;;;4.22;3.85;;;;;;;10.06;100.00;100524.53;5078611;28;20096;-67
2023/01/11 04:03:02;;;;;;;4.30;4.00;;;;;;;10.12;100.00;100524.13;5078707;28;20042;-67
2023/01/11 04:05:28;;;;;;;4.50;4.10;;;;;;;10.09;100.00;100540.25;5092544;28;20092;-67
2023/01/11 04:07:54;;;;;;;4.18;3.95;;;;;;;10.12;100.00;100521.47;5093517;28;20080;-67
2023/01/11 04:10:22;;;;;;;4.95;4.55;;;;;;;10.16;100.00;100517.63;5091417;28;20032;-67
2023/01/11 04:12:48;;;;;;;4.18;3.97;;;;;;;10.15;100.00;100529.22;5093168;28;20032;-67
2023/01/11 04:15:14;;;;;;;4.97;4.60;;;;;;;10.13;100.00;100522.31;5091862;28;20116;-67
2023/01/11 04:17:41;;;;;;;5.05;4.65;;;;;;;10.19;100.00;100545.81;5096225;28;20031;-67
2023/01/11 04:20:11;;;;;;;5.30;4.82;;;;;;;10.19;100.00;100551.97;5104675;28;20031;-67
2023/01/11 04:22:39;;;;;;;6.05;5.03;;;;;;;10.23;100.00;100545.50;5095170;28;20505;-67
2023/01/11 04:25:07;;;;;;;5.15;4.68;;;;;;;10.29;100.00;100546.06;5093129;28;20027;-67
2023/01/11 04:27:33;;;;;;;5.57;5.13;;;;;;;10.21;100.00;100536.78;5078815;28;20039;-66
2023/01/11 04:29:58;;;;;;;5.25;4.82;;;;;;;10.22;100.00;100540.28;5112680;28;20057;-67
2023/01/11 04:32:24;;;;;;;8.18;5.40;;;;;;;10.28;100.00;100542.56;5078230;28;20495;-66
2023/01/11 04:34:50;;;;;;;5.97;5.32;;;;;;;10.24;100.00;100541.06;5077856;28;20395;-67
2023/01/11 04:37:16;;;;;;;6.10;5.65;;;;;;;10.22;100.00;100550.91;5074445;28;20371;-67
2023/01/11 04:39:41;;;;;;;5.88;5.43;;;;;;;10.18;100.00;100555.59;5090874;28;20043;-67
2023/01/11 04:42:18;;;;;;;5.47;5.07;;;;;;;10.19;100.00;100554.63;5074220;28;20036;-70
2023/01/11 04:44:46;;;;;;;6.05;5.55;;;;;;;10.21;100.00;100566.03;5090832;28;20056;-67
2023/01/11 04:47:12;;;;;;;5.90;5.22;;;;;;;10.19;100.00;100565.25;5077452;28;20058;-67
2023/01/11 04:49:38;;;;;;;5.35;4.95;;;;;;;10.24;100.00;100567.63;5099670;28;20042;-67
2023/01/11 04:52:04;;;;;;;5.50;5.00;;;;;;;10.19;100.00;100575.03;5099755;28;20031;-67
2023/01/11 04:54:30;;;;;;;5.97;5.25;;;;;;;10.19;100.00;100573.22;5088462;28;20024;-67
2023/01/11 04:56:57;;;;;;;6.00;4.90;;;;;;;10.17;100.00;100568.97;5096653;28;20027;-67
2023/01/11 04:59:23;;;;;;;6.03;4.80;;;;;;;10.18;100.00;100574.19;5095103;28;20364;-67
2023/01/11 05:01:49;;;;;;;5.47;4.10;;;;;;;10.29;100.00;100570.00;5111999;28;20055;-66
2023/01/11 05:04:14;;;;;;;4.60;4.30;;;;;;;10.26;100.00;100565.69;5092737;28;20421;-67
2023/01/11 05:06:40;;;;;;;4.53;3.92;;;;;;;10.21;100.00;100568.69;5092459;28;20046;-67
2023/01/11 05:09:14;;;;;;;3.45;3.25;;;;;;;10.26;100.00;100560.38;5109755;28;20437;-67
2023/01/11 05:11:40;;;;;;;5.88;3.63;;;;;;;10.28;100.00;100565.66;5099263;28;20124;-67
2023/01/11 05:14:06;;;;;;;3.92;3.42;;;;;;;10.26;100.00;100575.47;5093369;28;20620;-66
2023/01/11 05:16:32;;;;;;;3.60;3.30;;;;;;;10.30;100.00;100569.91;5091869;28;20035;-67
2023/01/11 05:19:03;;;;;;;4.38;3.22;;;;;;;10.27;100.00;100566.59;5109175;28;20031;-67
2023/01/11 05:21:39;;;;;;;3.75;3.45;;;;;;;10.30;100.00;100569.91;5111554;28;20038;-67
2023/01/11 05:24:07;;;;;;;4.00;3.70;;;;;;;10.27;100.00;100580.75;5099886;28;20032;-67
2023/01/11 05:26:35;;;;;;;4.72;4.05;;;;;;;10.32;100.00;100588.41;5112018;28;20032;-67
2023/01/11 05:29:04;;;;;;;5.57;4.70;;;;;;;10.29;100.00;100599.22;5090596;28;20059;-67
2023/01/11 05:31:31;;;;;;;6.80;4.70;;;;;;;10.26;100.00;100599.41;5091955;28;20028;-67
2023/01/11 05:33:58;;;;;;;5.93;4.95;;;;;;;10.24;100.00;100592.41;5103281;28;20076;-67
2023/01/11 05:36:25;;;;;;;6.28;5.75;;;;;;;10.20;100.00;100587.38;5094360;28;20382;-67
2023/01/11 05:38:52;;;;;;;10.05;7.55;;;;;;;10.22;100.00;100596.94;5098486;28;20056;-67
2023/01/11 05:41:20;;;;;;;10.00;7.75;;;;;;;10.26;100.00;100594.09;5091530;28;20392;-67
2023/01/11 05:46:34;;;;;;;9.07;7.82;;;;;;;10.19;100.00;100598.97;5107195;28;20097;-67
2023/01/11 05:49:00;;;;;;;9.73;7.90;;;;;;;10.20;100.00;100598.84;5099518;28;20094;-67
2023/01/11 05:51:31;;;;;;;8.63;7.82;;;;;;;10.18;100.00;100598.13;5100668;28;20090;-67
2023/01/11 05:53:57;;;;;;;8.70;7.65;;;;;;;10.18;100.00;100598.13;5111597;28;20047;-66
2023/01/11 05:56:23;;;;;;;11.60;8.73;;;;;;;10.18;100.00;100597.28;5098816;28;20028;-67
2023/01/11 05:58:49;;;;;;;10.45;8.77;;;;;;;10.17;100.00;100598.19;5078304;28;20518;-66
2023/01/11 06:01:16;;;;;;;9.57;8.60;;;;;;;10.15;100.00;100616.91;5112742;28;20031;-67
2023/01/11 06:03:43;;;;;;;12.77;9.95;;;;;;;10.15;100.00;100618.72;5110901;28;20030;-67
2023/01/11 06:06:08;;;;;;;11.75;8.68;;;;;;;10.11;100.00;100627.84;5112198;28;20099;-67
2023/01/11 06:08:33;;;;;;;12.80;7.30;;;;;;;10.05;100.00;100633.53;5111359;28;20118;-66
2023/01/11 06:10:59;;;;;;;10.82;5.45;;;;;;;9.96;100.00;100619.03;5076390;28;20035;-67
2023/01/11 06:13:25;;;;;;;15.70;5.78;;;;;;;9.92;100.00;100626.38;5111642;28;20027;-67
2023/01/11 06:15:53;;;;;;;15.07;6.28;;;;;;;9.84;100.00;100623.34;5093490;28;20118;-67
2023/01/11 06:18:19;;;;;;;12.43;5.70;;;;;;;9.84;100.00;100638.44;5109157;28;20028;-67
2023/01/11 06:20:49;;;;;;;17.17;5.63;;;;;;;9.78;100.00;100632.53;5096196;28;20022;-67
2023/01/11 06:23:15;;;;;;;18.15;5.82;;;;;;;9.77;100.00;100645.94;5075679;28;20390;-67
2023/01/11 06:25:41;;;;;;;14.43;5.43;;;;;;;9.73;100.00;100655.03;5094972;28;20027;-66
2023/01/11 06:28:06;;;;;;;21.02;6.20;;;;;;;9.67;100.00;100642.13;5094874;28;20443;-67
2023/01/11 06:30:32;;;;;;;16.38;5.50;;;;;;;9.66;100.00;100641.28;5107734;28;20434;-67
2023/01/11 06:33:04;;;;;;;12.75;5.15;;;;;;;9.64;100.00;100661.78;5089974;28;20027;-67
2023/01/11 06:35:40;;;;;;;17.10;5.38;;;;;;;9.62;100.00;100652.19;5115444;28;20385;-67
2023/01/11 06:38:07;;;;;;;15.07;5.43;;;;;;;9.59;100.00;100665.66;5096357;28;20490;-67
2023/01/11 06:40:34;;;;;;;14.70;6.22;;;;;;;9.55;100.00;100683.59;5115057;28;20031;-67
2023/01/11 06:43:00;;;;;;;19.08;6.97;;;;;;;9.54;100.00;100674.78;5107574;28;20040;-67
2023/01/11 06:45:26;;;;;;;22.98;5.50;;;;;;;9.53;100.00;100675.72;5105189;28;20046;-67
2023/01/11 06:47:51;;;;;;;21.30;5.63;;;;;;;9.51;100.00;100682.91;5090963;28;20751;-67
2023/01/11 06:50:19;;;;;;;21.48;5.88;;;;;;;9.54;100.00;100690.69;5081723;28;20035;-67
2023/01/11 06:52:52;;;;;;;15.82;5.82;;;;;;;9.47;100.00;100709.75;5115124;28;20027;-67
2023/01/11 06:55:18;;;;;;;21.70;6.68;;;;;;;9.51;100.00;100719.25;5097641;28;20374;-67
2023/01/11 06:57:46;;;;;;;27.75;6.43;;;;;;;9.49;100.00;100716.66;5100506;28;20027;-67
2023/01/11 07:00:13;;;;;;;22.10;6.60;;;;;;;9.48;100.00;100711.47;5115208;28;20031;-67
2023/01/11 07:02:41;;;;;;;19.73;6.72;;;;;;;9.47;100.00;100712.41;5097124;28;20035;-67
2023/01/11 07:05:07;;;;;;;20.35;6.60;;;;;;;9.43;100.00;100709.06;5080320;28;20046;-67
2023/01/11 07:07:33;;;;;;;27.50;6.47;;;;;;;9.42;100.00;100703.88;5113994;28;20028;-67
2023/01/11 07:10:08;;;;;;;28.55;7.22;;;;;;;9.39;100.00;100718.19;5096569;28;20393;-67
2023/01/11 07:12:34;;;;;;;29.80;7.10;;;;;;;9.39;100.00;100726.16;5110193;28;20035;-67
2023/01/11 07:15:00;;;;;;;25.95;7.00;;;;;;;9.31;100.00;100713.31;5101611;28;20034;-67
2023/01/11 07:17:26;;;;;;;24.55;6.47;;;;;;;9.40;100.00;100729.66;5091270;28;20398;-66
2023/01/11 07:19:51;;;;;;;31.15;7.38;;;;;;;9.36;100.00;100747.56;5083959;28;20042;-67
2023/01/11 07:22:17;;;;;;;30.92;7.25;;;;;;;9.37;100.00;100751.91;5100017;28;20032;-67
2023/01/11 07:24:43;;;;;;;27.25;6.40;;;;;;;9.31;100.00;100760.25;5095694;28;20034;-67
2023/01/11 07:27:11;;;;;;;28.02;7.43;;;;;;;9.29;100.00;100755.03;5105696;28;20500;-67
2023/01/11 07:29:36;;;;;;;30.83;7.68;;;;;;;9.24;100.00;100767.72;5072863;28;20132;-67
2023/01/11 07:32:03;;;;;;;25.08;6.40;;;;;;;9.22;100.00;100761.66;5079429;28;20040;-67
2023/01/11 07:34:31;;;;;;;26.30;6.93;;;;;;;9.20;100.00;100758.22;5095979;28;20028;-67
2023/01/11 07:36:57;;;;;;;21.10;7.20;;;;;;;9.17;100.00;100762.84;5114116;28;20024;-66
2023/01/11 07:39:25;;;;;;;24.42;6.80;;;;;;;9.14;100.00;100769.19;5103777;28;20043;-66
2023/01/11 07:44:34;;;;;;;25.98;7.40;;;;;;;9.10;100.00;100781.78;5077696;28;20544;-67
2023/01/11 07:47:00;;;;;;;26.48;7.53;;;;;;;9.07;100.00;100791.72;5110706;28;20051;-66
2023/01/11 07:49:26;;;;;;;30.60;7.22;;;;;;;9.02;100.00;100788.47;5103357;28;20404;-66
2023/01/11 07:51:51;;;;;;;31.42;7.50;;;;;;;8.96;100.00;100786.19;5102883;28;20028;-67
2023/01/11 07:54:20;;;;;;;27.67;7.32;;;;;;;8.95;100.00;100801.25;5084178;28;20057;-67
2023/01/11 07:56:45;;;;;;;26.05;7.10;;;;;;;8.97;100.00;100812.63;5111344;28;20031;-67
2023/01/11 07:59:10;;;;;;;31.85;6.80;;;;;;;8.96;100.00;100815.34;5113219;28;20035;-67
2023/01/11 08:01:36;;;;;;;20.63;6.55;;;;;;;8.94;100.00;100812.81;5075791;28;20036;-67
2023/01/11 08:04:03;;;;;;;32.30;7.75;;;;;;;8.90;100.00;100811.25;5110157;28;20028;-67
2023/01/11 08:06:28;;;;;;;25.60;7.25;;;;;;;8.92;100.00;100820.00;5114048;28;20465;-67
2023/01/11 08:08:54;;;;;;;24.38;7.13;;;;;;;8.91;100.00;100823.56;5112795;28;20039;-66
2023/01/11 08:16:52;;;;;;;31.00;7.70;;;;;;;8.89;100.00;100841.38;5083840;28;20063;-67
2023/01/11 08:19:18;;;;;;;27.25;8.23;;;;;;;8.87;100.00;100840.59;5093003;28;20463;-66
2023/01/11 08:21:44;;;;;;;26.83;7.43;;;;;;;8.86;100.00;100847.72;5113380;28;20042;-66
2023/01/11 08:24:10;;;;;;;26.70;6.95;;;;;;;8.83;100.00;100862.94;5094439;28;20035;-66
2023/01/11 08:26:35;;;;;;;28.23;7.40;;;;;;;8.77;100.00;100869.44;5113415;28;20443;-67
2023/01/11 08:29:00;;;;;;;23.48;6.93;;;;;;;8.77;100.00;100880.03;5077972;28;20042;-66
2023/01/11 08:31:26;;;;;;;26.52;6.88;;;;;;;8.74;100.00;100882.88;5098429;28;20752;-67
2023/01/11 08:33:51;;;;;;;21.02;6.95;;;;;;;8.74;100.00;100884.66;5109579;28;20552;-66
2023/01/11 08:36:17;;;;;;;26.77;7.13;;;;;;;8.70;100.00;100891.06;5097601;28;20575;-67
2023/01/11 08:38:43;;;;;;;21.23;6.82;;;;;;;8.75;100.00;100894.31;5100247;28;20142;-66
2023/01/11 08:41:13;;;;;;;25.67;7.00;;;;;;;8.77;100.00;100895.09;5082580;28;20055;-66
2023/01/11 08:43:40;;;;;;;25.17;6.43;;;;;;;8.77;100.00;100895.97;5103376;28;20031;-67
2023/01/11 08:46:07;;;;;;;21.70;6.55;;;;;;;8.69;100.00;100895.50;5109491;28;20051;-66
2023/01/11 08:48:33;;;;;;;27.65;6.93;;;;;;;8.68;100.00;100895.59;5109164;28;20032;-67
2023/01/11 08:50:58;;;;;;;23.17;5.88;;;;;;;8.68;100.00;100906.19;5110230;28;20034;-66
2023/01/11 08:53:24;;;;;;;25.05;6.65;;;;;;;8.61;100.00;100905.66;5111346;28;20028;-66
2023/01/11 08:55:50;;;;;;;26.33;6.65;;;;;;;8.61;100.00;100909.19;5109711;28;20059;-66
2023/01/11 08:58:16;;;;;;;19.13;6.55;;;;;;;8.59;100.00;100916.38;5110562;28;20032;-66
2023/01/11 09:00:41;;;;;;;28.13;6.38;;;;;;;8.57;100.00;100925.34;5056934;28;20063;-67
2023/01/11 09:03:09;;;;;;;28.35;7.68;;;;;;;8.53;100.00;100929.06;5074841;28;20031;-66
2023/01/11 09:05:35;;;;;;;27.20;7.50;;;;;;;8.50;100.00;100940.72;5094139;28;20098;-66
2023/01/11 09:08:00;;;;;;;23.58;5.97;;;;;;;8.54;100.00;100941.41;5091963;28;20039;-67
2023/01/11 09:10:26;;;;;;;25.70;6.70;;;;;;;8.49;100.00;100940.78;5087415;28;20024;-66
2023/01/11 09:12:53;;;;;;;22.50;5.93;;;;;;;8.53;100.00;100944.97;5093051;28;20038;-67
2023/01/11 09:15:21;;;;;;;26.58;6.78;;;;;;;8.40;100.00;100923.59;5093232;28;20031;-67
2023/01/11 09:17:47;;;;;;;23.40;6.30;;;;;;;8.44;100.00;100943.66;5084752;28;20039;-67
2023/01/11 09:20:13;;;;;;;26.40;6.95;;;;;;;8.43;100.00;100954.38;5102210;28;20035;-66
2023/01/11 09:22:38;;;;;;;21.88;6.25;;;;;;;8.42;100.00;100953.53;5110483;28;20111;-66
2023/01/11 09:25:05;;;;;;;19.10;6.25;;;;;;;8.38;100.00;100946.63;5092537;28;20462;-66
2023/01/11 09:27:31;;;;;;;26.58;7.93;;;;;;;8.37;100.00;100958.16;5104566;28;20080;-66
2023/01/11 09:30:01;;;;;;;25.88;6.80;;;;;;;8.36;100.00;100951.16;5092717;28;20024;-67
2023/01/11 09:32:26;;;;;;;20.30;5.88;;;;;;;8.34;100.00;100958.31;5111342;28;20031;-66
2023/01/11 09:34:56;;;;;;;19.90;6.25;;;;;;;8.35;100.00;100962.69;5092676;28;20039;-67
2023/01/11 09:37:21;;;;;;;14.93;5.85;;;;;;;8.31;100.00;100966.44;5097564;28;20031;-67
2023/01/11 09:39:48;;;;;;;22.88;6.65;;;;;;;8.36;100.00;100967.91;5111469;28;20375;-66
2023/01/11 09:42:16;;;;;;;24.55;6.75;;;;;;;8.36;100.00;100969.72;5094214;28;20016;-66
2023/01/11 09:44:56;;;;;;;26.80;7.28;;;;;;;8.38;100.00;100968.72;5111055;28;20116;-67
2023/01/11 09:47:22;;;;;;;21.35;6.75;;;;;;;8.45;100.00;100974.56;5110237;28;20042;-66
2023/01/11 09:49:55;;;;;;;18.92;6.70;;;;;;;8.47;100.00;100972.69;5111805;28;20031;-66
2023/01/11 09:52:35;;;;;;;26.00;6.93;;;;;;;8.44;100.00;100978.13;5112125;28;20030;-66
2023/01/11 09:55:01;;;;;;;;;;;;;;;8.57;100.00;100981.88;5111997;28;20072;-66
2023/01/11 09:57:50;;;;;;;25.52;6.90;;;;;;;8.50;100.00;100988.44;5093512;28;19912;-67
2023/01/11 10:00:41;;;;;;;25.00;7.25;;;;;;;8.67;100.00;101000.78;5113739;28;20487;-66
2023/01/11 10:03:20;;;;;;;17.83;6.28;;;;;;;8.86;100.00;100992.72;5116224;28;20167;-66
2023/01/11 10:06:01;;;;;;;27.95;6.63;;;;;;;9.05;100.00;100993.44;5114320;28;20031;-67
2023/01/11 10:08:42;;;;;;;24.33;7.05;;;;;;;9.26;99.58;100993.19;5093965;28;20031;-66
2023/01/11 10:11:50;;;;;;;22.80;6.18;;;;;;;9.42;98.22;100995.88;5107341;28;20031;-67
2023/01/11 10:14:37;;;;;;;25.15;6.90;;;;;;;9.54;96.78;100997.84;5023943;28;20034;-67
2023/01/11 10:17:41;;;;;;;24.25;6.85;;;;;;;9.75;97.04;101001.91;5113870;28;20026;-67
2023/01/11 10:20:23;;;;;;;16.85;5.95;;;;;;;9.89;97.01;101001.13;5110582;28;20036;-66
2023/01/11 10:22:53;;;;;;;19.15;5.72;;;;;;;9.97;94.54;101006.00;5108695;28;20077;-66
2023/01/11 10:25:25;;;;;;;17.20;5.97;;;;;;;10.01;95.06;101002.22;5096807;28;20575;-67
2023/01/11 10:28:00;;;;;;;20.23;6.30;;;;;;;10.09;95.15;101001.75;5113849;28;20478;-66
2023/01/11 10:33:57;;;;;;;18.13;6.53;;;;;;;10.16;92.61;101003.97;5113812;28;20030;-67
2023/01/11 10:40:05;;;;;;;23.95;5.90;;;;;;;10.57;89.59;101010.47;5082054;28;20035;-67
2023/01/11 10:42:43;;;;;;;20.52;6.20;;;;;;;10.73;87.04;101005.91;5087848;28;20059;-66
2023/01/11 10:45:19;;;;;;;20.30;6.05;;;;;;;10.95;86.19;101016.13;5072689;28;20131;-67
2023/01/11 10:48:01;;;;;;;22.00;5.70;;;;;;;11.18;84.34;101016.47;5074067;28;20024;-67
2023/01/11 10:50:31;;;;;;;23.05;5.28;;;;;;;11.32;82.26;101008.47;5071354;28;20102;-67
2023/01/11 10:53:11;;;;;;;18.60;5.28;;;;;;;11.68;82.65;101009.72;5073349;28;20038;-67
2023/01/11 10:56:03;;;;;;;18.98;5.15;;;;;;;11.88;79.87;101025.28;5073637;28;20025;-67
2023/01/11 10:58:37;;;;;;;20.90;5.47;;;;;;;12.08;77.99;101009.78;5062866;28;20021;-67
2023/01/11 11:01:19;;;;;;;17.02;4.57;;;;;;;12.21;77.89;101000.88;5074483;28;20028;-67
2023/01/11 11:04:05;;;;;;;19.02;5.88;;;;;;;12.37;76.02;101003.34;5074281;28;20029;-67
2023/01/11 11:06:32;;;;;;;21.00;4.93;;;;;;;12.55;73.72;101011.91;5073102;28;20025;-67
2023/01/11 11:09:12;;;;;;;17.80;4.80;;;;;;;12.59;75.48;101013.41;5072556;28;20028;-67
2023/01/11 11:11:46;;;;;;;20.75;4.40;;;;;;;12.84;72.09;101011.69;5073476;28;20391;-67
2023/01/11 11:14:44;;;;;;;21.45;5.70;;;;;;;12.56;74.56;101020.75;5072732;28;20028;-67
2023/01/11 11:17:34;;;;;;;20.52;5.90;;;;;;;12.72;74.08;101021.41;5033999;28;20128;-67
2023/01/11 11:20:15;;;;;;;18.92;6.10;;;;;;;12.55;73.12;101021.72;5053902;28;20028;-67
2023/01/11 11:22:41;;;;;;;20.10;5.80;;;;;;;12.66;72.30;101011.16;5053883;28;20110;-67
2023/01/11 11:25:18;;;;;;;22.48;5.50;;;;;;;12.69;73.12;101014.47;5053275;28;20047;-67
2023/01/11 11:27:51;;;;;;;21.45;6.00;;;;;;;12.65;70.20;101018.31;5072337;28;20024;-67
2023/01/11 11:30:27;;;;;;;16.88;5.35;;;;;;;12.84;71.87;101015.22;5072113;28;20029;-67
2023/01/11 11:33:05;;;;;;;14.68;5.28;;;;;;;12.99;72.06;101005.28;5072319;28;20056;-67
2023/01/11 11:35:38;;;;;;;17.30;5.10;;;;;;;13.19;71.05;101028.75;5073422;28;20027;-68
2023/01/11 11:38:05;;;;;;;22.13;5.25;;;;;;;13.05;69.15;101033.38;5073663;28;20032;-67
2023/01/11 11:40:36;;;;;;;19.88;5.93;;;;;;;12.78;69.45;101028.16;5071975;28;20031;-67
2023/01/11 11:43:21;;;;;;;19.02;5.90;;;;;;;12.92;70.69;101034.22;5072545;28;20036;-67
2023/01/11 11:45:54;;;;;;;18.23;5.97;;;;;;;12.99;71.41;101031.97;5092031;28;20076;-67
2023/01/11 11:48:20;;;;;;;24.38;5.57;;;;;;;13.13;67.62;101028.34;5098668;28;20035;-67
2023/01/11 11:50:49;;;;;;;20.17;5.35;;;;;;;12.96;69.40;101024.19;5075972;28;20028;-67
2023/01/11 11:53:29;;;;;;;18.98;5.90;;;;;;;13.05;68.79;101036.88;5093592;28;20528;-67
2023/01/11 11:55:55;;;;;;;21.48;6.60;;;;;;;13.08;67.34;101042.00;5093855;28;20034;-67
2023/01/11 11:58:24;;;;;;;19.67;5.20;;;;;;;13.05;66.68;101054.72;5075337;28;20036;-67
2023/01/11 12:00:51;;;;;;;23.45;5.97;;;;;;;12.85;67.64;101046.31;5093679;28;20106;-66
2023/01/11 12:03:31;;;;;;;16.85;6.15;;;;;;;12.76;70.29;101041.56;5093377;28;20106;-66
2023/01/11 12:06:01;;;;;;;;;;;;;;;13.16;68.66;101036.97;5092432;28;20036;-66
2023/01/11 12:08:29;;;;;;;18.92;5.75;;;;;;;13.14;68.80;101030.03;5092969;28;20358;-66
2023/01/11 12:10:58;;;;;;;25.15;6.30;;;;;;;13.47;66.44;101031.28;5091976;28;20024;-66
2023/01/11 12:13:38;;;;;;;17.90;4.68;;;;;;;13.15;66.47;101039.78;5093004;28;20104;-66